ADDS METAR Data INFO
IDs: Format: Raw Decoded Include TAF

Data at: 1412 UTC 12 Dec 2017

KBTA 121355Z AUTO 32004KT 10SM CLR M09/M11 A3030 RMK AO2 T10921110
KBTA 121335Z AUTO 30005KT 10SM CLR M09/M11 A3030 RMK AO2 T10901106
KBTA 121315Z AUTO 31005KT 10SM CLR M09/M11 A3031 RMK AO2 T10901106
KBTA 121255Z AUTO 29004KT 10SM CLR M09/M10 A3031 RMK AO2 T10901105
KBTA 121235Z AUTO 31004KT 10SM CLR M09/M11 A3031 RMK AO2 T10911107
KBTA 121215Z AUTO 30003KT 10SM CLR M09/M11 A3031 RMK AO2 T10921107
KBTA 121155Z AUTO 31003KT 10SM CLR M09/M11 A3032 RMK AO2 T10901106 11038 21092
KBTA 121135Z AUTO 29005KT 10SM CLR M09/M11 A3032 RMK AO2 T10911107
KBTA 121115Z AUTO 29003KT 10SM CLR M09/M11 A3032 RMK AO2 T10901106
KBTA 121055Z AUTO 29006KT 10SM CLR M09/M10 A3032 RMK AO2 T10871105
KBTA 121035Z AUTO 27006KT 10SM CLR M09/M10 A3032 RMK AO2 T10861103
KBTA 121015Z AUTO 28004KT 10SM CLR M09/M10 A3033 RMK AO2 T10881105
KBTA 120955Z AUTO 30004KT 10SM CLR M08/M10 A3032 RMK AO2 T10851102
KBTA 120935Z AUTO 31006KT 10SM CLR M08/M10 A3033 RMK AO2 T10851102
KBTA 120915Z AUTO 32007KT 10SM CLR M08/M10 A3035 RMK AO2 T10801100
KBTA 120855Z AUTO 32006KT 10SM CLR M07/M10 A3034 RMK AO2 T10751097
KBTA 120835Z AUTO 31006KT 10SM CLR M07/M09 A3035 RMK AO2 T10711092
KBTA 120815Z AUTO 32010KT 10SM CLR M07/M09 A3034 RMK AO2 T10681090
KBTA 120755Z AUTO 31006KT 10SM CLR M06/M09 A3035 RMK AO2 T10621088
KBTA 120735Z AUTO 31007KT 10SM CLR M06/M08 A3034 RMK AO2 T10571085
KBTA 120715Z AUTO 34007KT 10SM CLR M05/M08 A3033 RMK AO2 T10541081
KBTA 120655Z AUTO 34008KT 10SM CLR M05/M08 A3033 RMK AO2 T10501079
KBTA 120635Z AUTO 33010KT 10SM CLR M05/M08 A3033 RMK AO2 T10461079
KBTA 120615Z AUTO 34013G17KT 10SM CLR M04/M07 A3033 RMK AO2 T10421075
KBTA 120555Z AUTO 34015KT 10SM CLR M04/M07 A3032 RMK AO2 T10381075 10034 21038 400871038
KBTA 120535Z AUTO 34011KT 10SM CLR M03/M08 A3032 RMK AO2 T10351077
KBTA 120515Z AUTO 33013G22KT 10SM CLR M03/M08 A3032 RMK AO2 T10301076
KBTA 120455Z AUTO 33015G21KT 10SM CLR M03/M07 A3031 RMK AO2 T10261072
KBTA 120435Z AUTO 33013KT 10SM CLR M02/M07 A3030 RMK AO2 T10221072
KBTA 120415Z AUTO 33017G22KT 10SM CLR M02/M07 A3030 RMK AO2 T10181071
KBTA 120355Z AUTO 34014G21KT 10SM CLR M01/M07 A3028 RMK AO2 T10131075
KBTA 120335Z AUTO 33017G23KT 10SM CLR M01/M08 A3028 RMK AO2 T10101078
KBTA 120315Z AUTO 33020G23KT 10SM CLR 00/M08 A3026 RMK AO2 T10051076
KBTA 120255Z AUTO 33020G29KT 10SM CLR 00/M08 A3025 RMK AO2 T00001080
KBTA 120235Z AUTO 33020G33KT 10SM CLR 00/M08 A3025 RMK AO2 T00041077
KBTA 120215Z AUTO 33022G27KT 10SM CLR 01/M06 A3025 RMK AO2 T00051064
KBTA 120155Z AUTO 32021G28KT 10SM CLR 01/M06 A3023 RMK AO2 T00081060
KBTA 120135Z AUTO 33021G32KT 10SM CLR 01/M05 A3023 RMK AO2 T00111047
KBTA 120115Z AUTO 32015KT 10SM CLR 01/M03 A3022 RMK AO2 T00131032
KBTA 120055Z AUTO 33020G26KT 10SM CLR 02/M03 A3020 RMK AO2 T00201032
KBTA 120035Z AUTO 33017G23KT 10SM SCT030 02/M03 A3019 RMK AO2 T00241030
KBTA 120015Z AUTO 33021G26KT 10SM BKN030 03/M02 A3018 RMK AO2 T00301025
KBTA 112355Z AUTO 33014G20KT 10SM BKN030 OVC036 04/M02 A3017 RMK AO2 T00351023 10084 20035
KBTA 112335Z AUTO 33015KT 10SM BKN034 04/M02 A3015 RMK AO2 T00371024
KBTA 112315Z AUTO 33029G35KT 10SM BKN028 OVC033 04/M02 A3014 RMK AO2 T00421017
KBTA 112255Z AUTO 33024G35KT 10SM OVC025 05/M01 A3013 RMK AO2 T00461008
KBTA 112235Z AUTO 33020G28KT 10SM OVC025 05/00 A3012 RMK AO2 T00501001
KBTA 112215Z AUTO 33022G31KT 10SM OVC027 05/00 A3010 RMK AO2 T00540000
KBTA 112155Z AUTO 33018G29KT 10SM OVC027 06/00 A3009 RMK AO2 T00570000
KBTA 112135Z AUTO 32023G31KT 10SM BKN027 OVC032 06/00 A3007 RMK AO2 T00600000
KBTA 112115Z AUTO 32025G33KT 10SM BKN025 OVC031 06/01 A3006 RMK AO2 T00600007
KBTA 112055Z AUTO 32024G35KT 10SM OVC025 07/01 A3004 RMK AO2 T00650010
KBTA 112035Z AUTO 31025G35KT 10SM OVC027 07/01 A3002 RMK AO2 T00680010
KBTA 112015Z AUTO 32021G36KT 10SM OVC029 07/01 A3001 RMK AO2 T00700010
KBTA 111955Z AUTO 31021G35KT 10SM OVC029 07/01 A3001 RMK AO2 T00740007
KBTA 111935Z AUTO 32028G39KT 10SM OVC031 08/01 A2999 RMK AO2 T00760006
KBTA 111915Z AUTO 32022G35KT 10SM OVC033 08/01 A2998 RMK AO2 T00820007
KBTA 111855Z AUTO 32027G37KT 10SM OVC033 08/01 A2998 RMK AO2 T00820006
KBTA 111835Z AUTO 31022G35KT 10SM OVC033 08/01 A2998 RMK AO2 T00830005
KBTA 111815Z AUTO 32031G36KT 10SM OVC033 08/01 A2996 RMK AO2 T00810005
KBTA 111755Z AUTO 31025G34KT 10SM OVC035 08/00 A2996 RMK AO2 T00810002 10087 20043
KBTA 111735Z AUTO 32022G35KT 10SM OVC037 08/00 A2997 RMK AO2 T00800000
KBTA 111715Z AUTO 31029G40KT 10SM OVC037 08/00 A2997 RMK AO2 T00820000
KBTA 111655Z AUTO 31021G34KT 10SM OVC037 08/00 A2997 RMK AO2 T00820000
KBTA 111635Z AUTO 32030G36KT 10SM OVC039 09/00 A2996 RMK AO2 T00851002
KBTA 111615Z AUTO 31019G34KT 10SM BKN037 BKN075 09/00 A2996 RMK AO2 T00851005
KBTA 111555Z AUTO 31023G35KT 10SM CLR 08/M01 A2995 RMK AO2 T00841011
KBTA 111535Z AUTO 31021G32KT 10SM CLR 08/M02 A2995 RMK AO2 T00801017
KBTA 111515Z AUTO 31020G27KT 10SM CLR 08/M03 A2994 RMK AO2 T00771026
KBTA 111455Z AUTO 30014G20KT 10SM CLR 07/M04 A2993 RMK AO2 T00681045
KBTA 111435Z AUTO 31011G17KT 10SM CLR 07/M04 A2993 RMK AO2 T00681043
KBTA 111415Z AUTO 31017G27KT 10SM CLR 08/M04 A2993 RMK AO2 T00751036
KBTA 111355Z AUTO 31021G30KT 10SM CLR 08/M04 A2993 RMK AO2 T00751041
KBTA 111335Z AUTO 31013G18KT 10SM CLR 05/M06 A2993 RMK AO2 T00541059
KBTA 111315Z AUTO 31012G17KT 10SM CLR 05/M06 A2991 RMK AO2 T00521065
KBTA 111255Z AUTO 29010G17KT 10SM CLR 05/M07 A2991 RMK AO2 T00451068
KBTA 111235Z AUTO 27010G15KT 10SM CLR 05/M07 A2990 RMK AO2 T00451069
KBTA 111215Z AUTO 27009KT 10SM CLR 05/M07 A2990 RMK AO2 T00451069
KBTA 111155Z AUTO 27008KT 10SM CLR 05/M07 A2990 RMK AO2 T00451070 10046 20007
KBTA 111135Z AUTO 28008KT 10SM CLR 04/M07 A2990 RMK AO2 T00421070
KBTA 111115Z AUTO 29008KT 10SM CLR 04/M07 A2990 RMK AO2 T00381070
KBTA 111055Z AUTO 27006KT 10SM CLR 04/M07 A2991 RMK AO2 T00351067
KBTA 111035Z AUTO 27005KT 10SM CLR 04/M07 A2991 RMK AO2 T00391067
KBTA 111015Z AUTO 26006KT 10SM CLR 04/M07 A2992 RMK AO2 T00401066
KBTA 110955Z AUTO 27007KT 10SM CLR 04/M06 A2993 RMK AO2 T00421065
KBTA 110935Z AUTO 25009KT 10SM CLR 03/M06 A2994 RMK AO2 T00331061
KBTA 110915Z AUTO 24008KT 10SM CLR 04/M06 A2994 RMK AO2 T00381065
KBTA 110855Z AUTO 25009KT 10SM CLR 03/M06 A2996 RMK AO2 T00331065
KBTA 110835Z AUTO 25007KT 10SM CLR 05/M07 A2996 RMK AO2 T00451066
KBTA 110815Z AUTO 24008KT 10SM CLR 05/M06 A2995 RMK AO2 T00451064
KBTA 110755Z AUTO 23006KT 10SM CLR 04/M06 A2995 RMK AO2 T00441058
KBTA 110735Z AUTO 24008KT 10SM CLR 04/M05 A2996 RMK AO2 T00351055
KBTA 110715Z AUTO 22006KT 10SM CLR 03/M05 A2997 RMK AO2 T00261050
KBTA 110655Z AUTO 22006KT 10SM CLR 01/M05 A2998 RMK AO2 T00081050
KBTA 110635Z AUTO 22004KT 10SM CLR 03/M05 A2999 RMK AO2 T00301053
KBTA 110615Z AUTO 20003KT 10SM CLR 03/M05 A2999 RMK AO2 T00251050
KBTA 110555Z AUTO 22003KT 10SM CLR 03/M05 A3001 RMK AO2 T00341050 10078 20014 401151014
KBTA 110535Z AUTO 21004KT 10SM CLR 03/M05 A3001 RMK AO2 T00271046
KBTA 110515Z AUTO 19005KT 10SM CLR 03/M04 A3001 RMK AO2 T00251040
KBTA 110455Z AUTO 18004KT 10SM CLR 02/M04 A3002 RMK AO2 T00161043
KBTA 110435Z AUTO 19004KT 10SM CLR 02/M04 A3003 RMK AO2 T00241043
KBTA 110415Z AUTO 20006KT 10SM CLR 03/M04 A3004 RMK AO2 T00251042
KBTA 110355Z AUTO 19005KT 10SM CLR 02/M04 A3005 RMK AO2 T00221043
KBTA 110335Z AUTO 19005KT 10SM CLR 03/M04 A3006 RMK AO2 T00311041
KBTA 110315Z AUTO 19003KT 10SM CLR 03/M04 A3006 RMK AO2 T00321041
KBTA 110255Z AUTO 00000KT 10SM CLR 04/M04 A3008 RMK AO2 T00411039
KBTA 110235Z AUTO 00000KT 10SM CLR 04/M04 A3008 RMK AO2 T00411037
KBTA 110215Z AUTO 00000KT 10SM CLR 04/M04 A3008 RMK AO2 T00421041